Time;durP1;ratioP1;P1;durP2;ratioP2;P2;SDS_P1;SDS_P2;PMS_P1;PMS_P2;Temp;Humidity;BMP_temperature;BMP_pressure;BME280_temperature;BME280_humidity;BME280_pressure;Samples;Min_cycle;Max_cycle;Signal;HPM_P1;HPM_P2
2022/06/21 00:00:21;;;;;;;5.08;2.83;;;;;;;11.91;81.75;100277.15;1760674;79;21299;-76
2022/06/21 00:02:53;;;;;;;3.85;2.90;;;;;;;11.89;81.74;100275.48;1746169;81;20915;-76
2022/06/21 00:05:37;;;;;;;5.55;2.92;;;;;;;11.86;81.81;100280.75;1734562;81;21410;-76
2022/06/21 00:08:16;;;;;;;6.30;3.40;;;;;;;11.86;81.78;100284.64;1743085;81;20886;-76
2022/06/21 00:10:43;;;;;;;3.90;3.05;;;;;;;11.86;81.90;100275.13;1724395;81;20897;-76
2022/06/21 00:13:20;;;;;;;7.37;3.60;;;;;;;11.85;81.83;100275.16;1708907;83;20907;-76
2022/06/21 00:15:48;;;;;;;5.85;3.25;;;;;;;11.83;81.87;100277.80;1739573;81;20934;-76
2022/06/21 00:18:19;;;;;;;4.17;3.37;;;;;;;11.82;81.92;100289.05;1731759;81;20916;-76
2022/06/21 00:20:46;;;;;;;4.95;3.33;;;;;;;11.83;81.95;100287.31;1706314;83;20931;-76
2022/06/21 00:23:20;;;;;;;4.58;3.20;;;;;;;11.83;81.91;100280.39;1727314;81;20948;-76
2022/06/21 00:25:46;;;;;;;7.53;3.58;;;;;;;11.83;82.02;100275.20;1752159;81;20922;-76
2022/06/21 00:28:17;;;;;;;4.53;3.10;;;;;;;11.82;81.95;100272.21;1752097;81;20883;-76
2022/06/21 00:30:46;;;;;;;6.58;3.10;;;;;;;11.83;81.93;100279.53;1749402;81;20879;-76
2022/06/21 00:33:15;;;;;;;7.00;2.90;;;;;;;11.79;81.96;100280.06;1734229;81;20927;-76
2022/06/21 00:35:45;;;;;;;4.37;3.30;;;;;;;11.78;82.00;100276.22;1729679;81;20847;-76
2022/06/21 00:38:15;;;;;;;3.12;2.75;;;;;;;11.76;81.95;100280.11;1746464;81;20931;-76
2022/06/21 00:40:42;;;;;;;6.42;3.30;;;;;;;11.76;81.97;100281.84;1745310;81;20879;-76
2022/06/21 00:43:27;;;;;;;4.45;4.05;;;;;;;11.75;81.99;100282.30;1722625;81;20924;-76
2022/06/21 00:45:53;;;;;;;5.92;3.05;;;;;;;11.76;82.01;100281.41;1741432;81;20890;-75
2022/06/21 00:48:41;;;;;;;3.77;3.05;;;;;;;11.74;82.02;100278.00;1752079;81;20878;-76
2022/06/21 00:51:24;;;;;;;3.77;2.87;;;;;;;11.71;82.09;100283.70;1744568;81;20900;-76
2022/06/21 00:54:03;;;;;;;3.12;2.80;;;;;;;11.67;82.05;100282.94;1752695;81;20909;-76
2022/06/21 00:56:37;;;;;;;5.37;2.98;;;;;;;11.64;82.14;100275.69;1752278;81;20847;-76
2022/06/21 00:59:27;;;;;;;5.50;2.87;;;;;;;11.64;82.06;100274.39;1735909;81;20892;-76
2022/06/21 01:02:07;;;;;;;4.70;2.75;;;;;;;11.64;82.06;100283.45;1752228;81;20882;-76
2022/06/21 01:04:45;;;;;;;4.33;3.22;;;;;;;11.61;82.11;100277.91;1769047;79;20877;-76
2022/06/21 01:07:13;;;;;;;3.17;2.85;;;;;;;11.60;82.10;100276.21;1769052;80;20846;-76
2022/06/21 01:09:46;;;;;;;4.33;2.60;;;;;;;11.60;82.12;100274.91;1768362;80;20921;-76
2022/06/21 01:12:36;;;;;;;3.02;2.52;;;;;;;11.61;82.27;100272.73;1761649;80;20889;-76
2022/06/21 01:15:08;;;;;;;4.70;2.35;;;;;;;11.59;82.14;100277.09;1766789;80;20901;-76
2022/06/21 01:17:35;;;;;;;3.12;2.67;;;;;;;11.57;82.10;100272.41;1763588;81;20874;-76
2022/06/21 01:20:16;;;;;;;3.10;2.37;;;;;;;11.54;82.03;100268.16;1745339;80;21458;-76
2022/06/21 01:23:20;;;;;;;2.92;2.62;;;;;;;11.55;82.08;100269.86;1737963;82;20888;-76
2022/06/21 01:26:31;;;;;;;2.62;2.42;;;;;;;11.54;82.08;100265.56;1747993;81;20889;-76
2022/06/21 01:29:07;;;;;;;3.52;2.45;;;;;;;11.52;82.08;100272.97;1753076;81;20944;-76
2022/06/21 01:31:34;;;;;;;2.72;2.25;;;;;;;11.50;82.12;100274.74;1738668;81;20921;-76
2022/06/21 01:34:00;;;;;;;;;;;;;;;11.47;82.13;100269.64;1768501;81;20838;-77
2022/06/21 01:36:31;;;;;;;2.58;2.27;;;;;;;11.45;82.21;100259.77;1769560;80;20141;-76
2022/06/21 01:39:08;;;;;;;3.08;2.52;;;;;;;11.41;82.07;100258.17;1759978;80;20907;-76
2022/06/21 01:41:50;;;;;;;5.17;2.60;;;;;;;11.38;82.07;100260.84;1757463;81;20910;-76
2022/06/21 01:44:27;;;;;;;4.62;2.27;;;;;;;11.36;82.06;100260.03;1762154;80;20859;-76
2022/06/21 01:46:55;;;;;;;3.50;2.40;;;;;;;11.31;82.03;100255.41;1768255;81;20850;-76
2022/06/21 01:49:25;;;;;;;2.83;2.20;;;;;;;11.27;82.07;100255.92;1753842;80;21431;-76
2022/06/21 01:52:02;;;;;;;4.70;2.60;;;;;;;11.24;82.15;100257.30;1738618;81;21407;-76
2022/06/21 01:54:33;;;;;;;7.92;2.65;;;;;;;11.21;82.20;100255.62;1762249;81;20850;-77
2022/06/21 01:57:00;;;;;;;8.58;2.90;;;;;;;11.18;82.17;100253.12;1763653;80;20893;-76
2022/06/21 01:59:31;;;;;;;4.90;2.30;;;;;;;11.17;82.15;100253.16;1750601;80;20900;-76
2022/06/21 02:02:05;;;;;;;5.10;3.25;;;;;;;11.15;82.23;100255.78;1742560;79;20942;-76
2022/06/21 02:04:36;;;;;;;3.80;2.45;;;;;;;11.13;82.32;100257.99;1752329;81;20847;-76
2022/06/21 02:07:07;;;;;;;3.52;2.50;;;;;;;11.09;82.19;100258.52;1737238;81;20900;-76
2022/06/21 02:09:38;;;;;;;3.33;2.50;;;;;;;11.07;82.22;100262.87;1734260;81;21883;-76
2022/06/21 02:12:10;;;;;;;4.47;2.70;;;;;;;11.05;82.22;100254.30;1740982;81;20884;-76
2022/06/21 02:14:41;;;;;;;4.05;2.60;;;;;;;11.05;82.18;100256.03;1727631;81;20902;-76
2022/06/21 02:17:12;;;;;;;2.98;2.55;;;;;;;11.03;82.24;100251.33;1752507;81;21354;-76
2022/06/21 02:20:23;;;;;;;5.30;2.50;;;;;;;11.00;82.17;100251.41;1745656;81;20844;-76
2022/06/21 02:22:49;;;;;;;3.60;2.70;;;;;;;10.97;82.15;100259.23;1739558;81;21467;-77
2022/06/21 02:25:24;;;;;;;4.95;2.50;;;;;;;10.91;82.17;100265.44;1730406;81;20911;-75
2022/06/21 02:27:56;;;;;;;2.80;2.42;;;;;;;10.85;82.12;100261.25;1733428;81;20918;-76
2022/06/21 02:30:25;;;;;;;3.20;2.77;;;;;;;10.82;82.21;100257.88;1752091;81;20906;-76
2022/06/21 02:32:54;;;;;;;2.62;2.10;;;;;;;10.80;82.25;100255.33;1723415;81;20861;-76
2022/06/21 02:35:34;;;;;;;3.87;2.58;;;;;;;10.78;82.26;100259.69;1730509;81;20918;-75
2022/06/21 02:38:05;;;;;;;8.45;2.83;;;;;;;10.78;82.28;100264.86;1750906;81;20914;-76
2022/06/21 02:40:37;;;;;;;3.42;2.50;;;;;;;10.75;82.30;100261.48;1722477;81;20900;-76
2022/06/21 02:43:09;;;;;;;2.90;2.47;;;;;;;10.74;82.25;100264.96;1751829;81;20914;-76
2022/06/21 02:46:01;;;;;;;5.20;2.37;;;;;;;10.71;82.28;100267.61;1750764;81;20915;-76
2022/06/21 02:48:34;;;;;;;6.60;2.70;;;;;;;10.68;82.26;100264.66;1677322;84;20963;-76
2022/06/21 02:51:05;;;;;;;2.77;2.40;;;;;;;10.67;82.37;100272.00;1707488;83;20954;-76
2022/06/21 02:53:40;;;;;;;5.37;2.80;;;;;;;10.66;82.34;100272.89;1734949;81;20918;-76
2022/06/21 02:56:14;;;;;;;3.80;2.40;;;;;;;10.64;82.29;100266.05;1673682;84;21334;-76
2022/06/21 02:58:47;;;;;;;2.80;2.15;;;;;;;10.62;82.35;100269.95;1678230;84;20877;-76
2022/06/21 03:01:35;;;;;;;2.40;2.20;;;;;;;10.59;82.31;100268.28;1697938;83;21475;-76
2022/06/21 03:04:11;;;;;;;2.17;2.08;;;;;;;10.58;82.34;100264.00;1726011;83;20911;-76
2022/06/21 03:06:39;;;;;;;3.42;2.55;;;;;;;10.56;82.37;100270.09;1697397;83;21421;-76
2022/06/21 03:09:10;;;;;;;2.70;1.98;;;;;;;10.56;82.43;100272.67;1719646;83;20860;-76
2022/06/21 03:11:43;;;;;;;7.08;2.90;;;;;;;10.57;82.53;100267.47;1688438;83;20943;-76
2022/06/21 03:14:15;;;;;;;3.02;2.37;;;;;;;10.58;82.49;100273.05;1704851;83;20923;-76
2022/06/21 03:16:45;;;;;;;3.35;2.35;;;;;;;10.62;82.48;100282.89;1721867;83;20903;-76
2022/06/21 03:19:25;;;;;;;2.92;2.62;;;;;;;10.63;82.52;100277.27;1726320;83;20872;-76
2022/06/21 03:21:53;;;;;;;4.15;2.40;;;;;;;10.66;82.56;100279.80;1720223;83;20907;-76
2022/06/21 03:24:23;;;;;;;2.62;2.42;;;;;;;10.66;82.46;100278.50;1725819;82;20915;-76
2022/06/21 03:26:57;;;;;;;6.12;2.70;;;;;;;10.67;82.43;100289.25;1718292;82;21282;-75
2022/06/21 03:29:24;;;;;;;5.78;2.42;;;;;;;10.70;82.52;100290.48;1697077;84;20968;-75
2022/06/21 03:31:50;;;;;;;;;;;;;;;10.73;82.51;100295.59;1702712;83;20919;-75
2022/06/21 03:34:20;;;;;;;3.12;2.45;;;;;;;10.76;82.80;100295.52;1723595;83;20167;-75
2022/06/21 03:36:48;;;;;;;3.25;2.20;;;;;;;10.75;82.53;100295.11;1696981;83;20927;-76
2022/06/21 03:42:15;;;;;;;3.75;2.08;;;;;;;10.82;82.62;100304.44;1691523;83;20908;-76
2022/06/21 03:44:49;;;;;;;3.65;2.27;;;;;;;10.86;82.61;100304.34;1699153;83;21092;-76
2022/06/21 03:47:33;;;;;;;3.27;2.15;;;;;;;10.87;82.54;100298.72;1700297;83;21064;-76
2022/06/21 03:50:10;;;;;;;2.37;2.17;;;;;;;10.91;82.70;100296.48;1724348;83;20939;-76
2022/06/21 03:52:50;;;;;;;2.50;2.30;;;;;;;10.93;82.61;100298.11;1714472;83;20911;-76
2022/06/21 03:55:36;;;;;;;2.60;2.40;;;;;;;10.93;82.49;100298.11;1724623;83;21743;-76
2022/06/21 03:58:23;;;;;;;2.58;2.05;;;;;;;10.94;82.46;100307.58;1716329;83;20903;-76
2022/06/21 04:01:17;;;;;;;5.33;2.40;;;;;;;10.97;82.57;100298.05;1724140;83;21530;-75
2022/06/21 04:03:54;;;;;;;4.33;2.08;;;;;;;11.02;82.71;100292.33;1723870;83;21814;-75
2022/06/21 04:06:52;;;;;;;2.47;2.27;;;;;;;11.03;82.54;100297.46;1708260;83;20924;-76
2022/06/21 04:09:29;;;;;;;2.40;2.22;;;;;;;11.07;82.55;100297.80;1677015;83;20927;-76
2022/06/21 04:12:10;;;;;;;3.10;2.90;;;;;;;11.13;82.56;100304.57;1689777;83;20964;-76
2022/06/21 04:14:46;;;;;;;3.77;3.08;;;;;;;11.15;82.62;100297.63;1706503;83;21380;-76
2022/06/21 04:17:42;;;;;;;4.67;2.92;;;;;;;11.21;82.61;100301.36;1708825;83;20904;-76
2022/06/21 04:20:34;;;;;;;3.40;3.10;;;;;;;11.27;82.62;100312.87;1710240;83;21285;-76
2022/06/21 04:23:18;;;;;;;6.15;3.00;;;;;;;11.33;82.64;100312.72;1712543;83;20875;-76
2022/06/21 04:26:05;;;;;;;3.22;2.92;;;;;;;11.39;82.62;100302.66;1712864;83;21495;-74
2022/06/21 04:28:54;;;;;;;4.83;3.80;;;;;;;11.45;82.66;100296.02;1705798;83;21380;-74
2022/06/21 04:31:35;;;;;;;4.25;3.40;;;;;;;11.51;82.62;100294.56;1684342;84;22455;-75
2022/06/21 04:34:12;;;;;;;3.80;3.45;;;;;;;11.54;82.64;100298.37;1720334;82;20947;-75
2022/06/21 04:37:07;;;;;;;6.30;4.10;;;;;;;11.55;82.57;100307.41;1698651;82;21536;-74
2022/06/21 04:39:46;;;;;;;4.10;3.47;;;;;;;11.59;82.63;100307.73;1694844;83;22102;-75
2022/06/21 04:42:28;;;;;;;4.55;3.70;;;;;;;11.61;82.61;100317.61;1703078;83;22244;-74
2022/06/21 04:45:05;;;;;;;3.80;3.50;;;;;;;11.65;82.74;100313.64;1703897;83;21142;-74
2022/06/21 04:47:43;;;;;;;3.55;3.25;;;;;;;11.67;82.79;100306.69;1713229;83;21749;-74
2022/06/21 04:50:35;;;;;;;3.90;3.12;;;;;;;11.68;82.63;100302.77;1710666;83;21058;-74
2022/06/21 04:53:33;;;;;;;3.70;3.20;;;;;;;11.69;82.61;100308.35;1708721;83;22271;-74
2022/06/21 04:56:10;;;;;;;3.80;3.20;;;;;;;11.68;82.64;100307.95;1718417;82;21665;-74
2022/06/21 04:58:36;;;;;;;3.10;2.83;;;;;;;11.68;82.63;100306.66;1712972;83;21630;-74
2022/06/21 05:01:29;;;;;;;3.07;2.73;;;;;;;11.73;82.74;100314.30;1716142;81;21486;-74
2022/06/21 05:03:38;;;;;;;3.50;3.08;;;;;;;11.76;82.75;100316.38;1694207;84;22371;-74
2022/06/21 05:06:05;;;;;;;4.40;2.55;;;;;;;11.80;82.69;100324.95;1773616;80;22085;-74
2022/06/21 05:08:32;;;;;;;6.83;2.52;;;;;;;11.85;82.74;100319.20;1748350;81;21046;-74
2022/06/21 05:11:00;;;;;;;;;;;;;;;11.88;82.71;100323.87;1736689;80;21868;-75
2022/06/21 05:13:37;;;;;;;2.37;2.15;;;;;;;11.92;82.85;100332.41;1767298;80;20129;-75
2022/06/21 05:16:29;;;;;;;2.92;2.60;;;;;;;11.95;82.77;100338.80;1771922;80;21469;-75
2022/06/21 05:19:12;;;;;;;3.95;2.08;;;;;;;12.01;82.76;100342.50;1753188;80;21115;-75
2022/06/21 05:21:47;;;;;;;4.08;1.95;;;;;;;12.06;82.68;100343.68;1778962;80;21496;-75
2022/06/21 05:24:14;;;;;;;3.87;1.85;;;;;;;12.12;82.74;100341.78;1752233;80;21564;-75
2022/06/21 05:27:11;;;;;;;2.00;1.70;;;;;;;12.14;82.59;100350.81;1726010;81;28857;-75
2022/06/21 05:30:04;;;;;;;3.40;1.70;;;;;;;12.16;82.58;100352.47;1776293;80;21704;-75
2022/06/21 05:32:56;;;;;;;1.52;1.42;;;;;;;12.17;82.54;100346.84;1768880;80;21402;-75
2022/06/21 05:35:27;;;;;;;6.70;1.60;;;;;;;12.24;82.61;100363.48;1776867;80;21623;-75
2022/06/21 05:38:21;;;;;;;2.98;1.67;;;;;;;12.33;82.71;100366.73;1777494;80;21531;-75
2022/06/21 05:41:29;;;;;;;2.95;1.70;;;;;;;12.35;82.52;100364.50;1768888;80;21464;-75
2022/06/21 05:43:48;;;;;;;3.10;1.55;;;;;;;12.44;82.65;100371.17;1751200;80;21440;-75
2022/06/21 05:46:18;;;;;;;1.50;1.40;;;;;;;12.50;82.54;100377.45;1754779;80;21068;-75
2022/06/21 05:48:45;;;;;;;2.17;1.70;;;;;;;12.51;82.48;100370.08;1763295;80;21492;-75
2022/06/21 05:51:25;;;;;;;2.75;1.30;;;;;;;12.48;82.43;100376.64;1772147;80;21527;-75
2022/06/21 05:54:02;;;;;;;2.77;1.80;;;;;;;12.48;82.51;100375.35;1773696;80;21039;-75
2022/06/21 05:56:31;;;;;;;4.00;1.22;;;;;;;12.53;82.58;100381.27;1773214;80;21083;-76
2022/06/21 05:59:14;;;;;;;1.25;1.10;;;;;;;12.57;82.52;100381.58;1761903;80;21573;-75
2022/06/21 06:01:52;;;;;;;1.75;1.02;;;;;;;12.65;82.60;100383.52;1775650;80;21412;-76
2022/06/21 06:04:37;;;;;;;3.25;1.07;;;;;;;12.75;82.59;100388.00;1758828;80;20948;-75
2022/06/21 06:07:05;;;;;;;1.25;1.12;;;;;;;12.76;82.36;100386.66;1779657;80;22163;-75
2022/06/21 06:09:43;;;;;;;2.75;1.30;;;;;;;12.74;82.36;100379.81;1764017;80;20969;-75
2022/06/21 06:12:23;;;;;;;1.00;0.87;;;;;;;12.75;82.41;100377.62;1753027;80;20961;-75
2022/06/21 06:15:04;;;;;;;2.30;1.30;;;;;;;12.83;82.54;100376.95;1768243;80;21432;-75
2022/06/21 06:17:56;;;;;;;2.12;1.10;;;;;;;12.95;82.50;100375.75;1773828;80;22283;-75
2022/06/21 06:20:51;;;;;;;1.00;0.90;;;;;;;13.07;82.56;100377.95;1764885;80;21387;-75
2022/06/21 06:23:40;;;;;;;2.47;1.20;;;;;;;13.21;82.56;100375.38;1761478;80;21032;-75
2022/06/21 06:26:14;;;;;;;1.20;0.90;;;;;;;13.31;82.44;100377.24;1765867;80;21445;-75
2022/06/21 06:29:00;;;;;;;1.12;1.02;;;;;;;13.35;82.30;100379.30;1770983;80;22240;-75
2022/06/21 06:31:33;;;;;;;;;;;;;;;13.38;82.25;100378.75;1771408;80;21476;-75
2022/06/21 06:34:07;;;;;;;1.40;1.07;;;;;;;13.59;82.76;100381.95;1764346;80;20157;-75
2022/06/21 06:36:42;;;;;;;2.37;1.00;;;;;;;14.05;82.81;100384.30;1776178;79;20889;-75
2022/06/21 06:39:30;;;;;;;1.27;1.12;;;;;;;14.41;82.29;100393.05;1757562;80;20905;-75
2022/06/21 06:42:20;;;;;;;1.17;0.75;;;;;;;14.83;82.56;100388.05;1769253;80;21795;-75
2022/06/21 06:45:00;;;;;;;1.30;0.90;;;;;;;15.21;82.11;100385.28;1764880;80;21039;-75
2022/06/21 06:47:44;;;;;;;1.87;0.95;;;;;;;15.53;81.90;100391.38;1769492;80;21063;-76
2022/06/21 06:50:33;;;;;;;3.60;1.00;;;;;;;15.73;81.61;100397.55;1761891;80;21073;-75
2022/06/21 06:53:07;;;;;;;1.05;0.78;;;;;;;15.70;81.07;100395.92;1754324;80;20950;-76
2022/06/21 06:55:46;;;;;;;1.30;0.80;;;;;;;15.65;80.99;100391.34;1763703;80;21056;-76
2022/06/21 06:58:28;;;;;;;2.22;0.78;;;;;;;15.61;80.54;100401.95;1773180;80;21067;-75
2022/06/21 07:01:00;;;;;;;2.52;0.88;;;;;;;15.52;81.18;100403.17;1768523;80;20996;-75
2022/06/21 07:03:37;;;;;;;2.98;0.72;;;;;;;15.53;81.37;100396.59;1754232;79;21042;-75
2022/06/21 07:06:33;;;;;;;1.57;0.90;;;;;;;15.53;81.04;100400.95;1743589;81;21485;-75
2022/06/21 07:09:09;;;;;;;0.72;0.72;;;;;;;15.47;81.32;100407.26;1745136;81;21041;-75
2022/06/21 07:11:44;;;;;;;0.70;0.60;;;;;;;15.46;81.23;100411.23;1736905;81;21020;-76
2022/06/21 07:14:24;;;;;;;2.72;0.80;;;;;;;15.41;81.08;100425.73;1741780;81;20914;-75
2022/06/21 07:16:56;;;;;;;0.80;0.80;;;;;;;15.42;81.34;100430.04;1740923;81;21065;-75
2022/06/21 07:19:25;;;;;;;1.77;0.98;;;;;;;15.43;81.13;100433.50;1735731;81;21149;-76
2022/06/21 07:21:51;;;;;;;2.00;1.22;;;;;;;15.40;80.99;100425.80;1731594;81;20983;-76
2022/06/21 07:24:19;;;;;;;1.00;0.80;;;;;;;15.61;81.36;100432.78;1715076;81;21017;-76
2022/06/21 07:26:53;;;;;;;1.45;0.72;;;;;;;15.80;81.36;100428.53;1739264;81;21027;-76
2022/06/21 07:29:40;;;;;;;1.42;1.00;;;;;;;15.97;81.07;100435.67;1737797;81;21448;-76
2022/06/21 07:32:12;;;;;;;;;;;;;;;16.05;80.66;100443.19;1747138;81;21068;-76
2022/06/21 07:34:47;;;;;;;1.35;0.80;;;;;;;16.07;80.47;100440.05;1744563;81;20153;-75
2022/06/21 07:37:23;;;;;;;3.50;0.80;;;;;;;16.09;81.00;100433.02;1731212;81;20950;-75
2022/06/21 07:40:11;;;;;;;1.65;0.88;;;;;;;16.09;80.76;100440.39;1746236;81;21098;-75
2022/06/21 07:42:45;;;;;;;2.62;0.65;;;;;;;16.04;80.43;100451.92;1696815;83;21183;-76
2022/06/21 07:45:23;;;;;;;1.98;0.68;;;;;;;15.99;80.30;100435.16;1669999;84;21093;-76
2022/06/21 07:48:06;;;;;;;1.42;0.70;;;;;;;15.97;80.22;100437.43;1701897;84;21035;-76
2022/06/21 07:50:44;;;;;;;2.72;0.62;;;;;;;16.42;81.11;100441.16;1735262;81;21109;-76
2022/06/21 07:53:19;;;;;;;0.88;0.40;;;;;;;16.86;80.50;100447.06;1730488;81;21107;-76
2022/06/21 07:56:00;;;;;;;1.27;0.62;;;;;;;17.00;80.35;100440.77;1742203;81;21064;-76
2022/06/21 07:58:38;;;;;;;2.60;0.60;;;;;;;17.10;79.84;100451.19;1704081;84;21058;-77
2022/06/21 08:07:13;;;;;;;0.62;0.45;;;;;;;16.99;79.85;100457.35;1757335;80;21219;-76
2022/06/21 08:09:50;;;;;;;3.40;0.65;;;;;;;17.24;79.71;100458.83;1766946;80;21097;-76
2022/06/21 08:12:17;;;;;;;3.12;0.82;;;;;;;17.30;79.69;100462.01;1733050;82;21073;-76
2022/06/21 08:14:45;;;;;;;0.98;0.50;;;;;;;17.22;78.79;100465.43;1753657;80;21087;-77
2022/06/21 08:17:35;;;;;;;2.75;0.45;;;;;;;17.11;78.67;100472.48;1696883;84;27081;-76
2022/06/21 08:20:12;;;;;;;5.30;0.85;;;;;;;17.18;79.23;100471.25;1704032;83;21053;-76
2022/06/21 08:23:10;;;;;;;1.27;0.60;;;;;;;17.32;78.97;100473.23;1700089;83;21081;-76
2022/06/21 08:26:02;;;;;;;2.77;0.50;;;;;;;17.37;78.90;100479.10;1706087;83;21102;-76
2022/06/21 08:28:39;;;;;;;1.10;0.50;;;;;;;17.53;78.67;100480.55;1717496;83;21740;-76
2022/06/21 08:31:16;;;;;;;1.27;0.53;;;;;;;17.72;78.67;100475.30;1706812;83;21059;-76
2022/06/21 08:33:51;;;;;;;2.47;0.62;;;;;;;17.86;77.59;100481.57;1766868;80;21033;-76
2022/06/21 08:36:24;;;;;;;1.27;0.50;;;;;;;17.79;77.32;100478.86;1756278;80;20860;-76
2022/06/21 08:39:19;;;;;;;2.05;0.55;;;;;;;17.79;76.45;100476.70;1771682;80;21559;-76
2022/06/21 08:42:27;;;;;;;0.62;0.40;;;;;;;17.81;77.65;100488.79;1773977;80;21024;-76
2022/06/21 08:45:44;;;;;;;1.55;0.40;;;;;;;17.76;77.61;100491.23;1758933;79;21070;-76
2022/06/21 08:49:00;;;;;;;2.75;0.47;;;;;;;17.59;77.50;100489.41;1719175;82;21115;-76
2022/06/21 08:51:54;;;;;;;0.98;0.37;;;;;;;17.61;77.79;100487.58;1712199;82;21084;-76
2022/06/21 08:54:52;;;;;;;1.42;0.45;;;;;;;17.54;77.53;100488.32;1707608;82;21057;-76
2022/06/21 08:57:32;;;;;;;1.35;0.20;;;;;;;17.47;77.36;100488.22;1684598;84;21061;-76
2022/06/21 09:00:24;;;;;;;1.70;0.40;;;;;;;17.69;78.01;100485.91;1631298;86;21087;-76
2022/06/21 09:03:26;;;;;;;1.45;0.55;;;;;;;18.01;77.78;100490.45;1625882;87;21023;-76
2022/06/21 09:06:13;;;;;;;2.92;0.50;;;;;;;18.20;76.87;100487.75;1647822;86;21010;-76
2022/06/21 09:09:08;;;;;;;0.90;0.47;;;;;;;18.37;76.34;100490.84;1617985;87;28312;-76
2022/06/21 09:12:01;;;;;;;0.53;0.40;;;;;;;18.53;76.82;100487.38;1612187;87;21137;-76
2022/06/21 09:14:54;;;;;;;;;;;;;;;18.53;75.05;100493.92;1613845;87;21145;-76
2022/06/21 09:17:30;;;;;;;0.60;0.40;;;;;;;18.40;74.84;100494.61;1642806;86;20104;-76
2022/06/21 09:20:38;;;;;;;0.37;0.30;;;;;;;18.36;76.13;100496.53;1662718;85;21077;-75
2022/06/21 09:23:33;;;;;;;0.78;0.35;;;;;;;18.41;76.07;100503.70;1708252;82;21081;-75
2022/06/21 09:26:21;;;;;;;1.37;0.45;;;;;;;18.43;76.48;100494.00;1724928;82;21157;-76
2022/06/21 09:29:13;;;;;;;0.70;0.30;;;;;;;18.51;76.33;100493.61;1684056;82;21101;-76
2022/06/21 09:31:53;;;;;;;0.47;0.37;;;;;;;18.53;75.78;100495.23;1704340;82;21094;-76
2022/06/21 09:34:42;;;;;;;1.55;0.50;;;;;;;18.51;74.06;100499.70;1699541;82;21087;-76
2022/06/21 09:37:33;;;;;;;2.55;0.40;;;;;;;18.37;72.00;100494.77;1718800;81;21093;-77
2022/06/21 09:40:38;;;;;;;0.72;0.60;;;;;;;18.25;73.09;100492.30;1701941;84;21089;-76
2022/06/21 09:43:33;;;;;;;2.02;0.70;;;;;;;18.28;74.85;100506.54;1702891;83;21780;-76
2022/06/21 09:46:38;;;;;;;0.75;0.40;;;;;;;18.35;74.36;100501.39;1696535;83;21114;-76
2022/06/21 09:49:25;;;;;;;2.92;0.40;;;;;;;18.43;74.26;100495.31;1703074;83;21629;-75
2022/06/21 09:52:23;;;;;;;1.80;0.62;;;;;;;18.49;72.87;100488.92;1732715;81;21058;-75
2022/06/21 09:55:37;;;;;;;1.65;0.50;;;;;;;18.45;74.11;100499.16;1721117;81;21076;-75
2022/06/21 09:58:38;;;;;;;1.05;0.42;;;;;;;18.43;74.25;100505.78;1730719;81;21085;-75
2022/06/21 10:01:21;;;;;;;0.70;0.70;;;;;;;18.31;74.32;100497.69;1737825;81;21093;-76
2022/06/21 10:04:00;;;;;;;2.62;0.78;;;;;;;18.29;73.39;100502.16;1729675;81;21065;-76
2022/06/21 10:06:34;;;;;;;2.02;0.68;;;;;;;18.24;73.75;100497.61;1718997;82;21065;-76
2022/06/21 10:09:36;;;;;;;1.10;0.60;;;;;;;18.25;73.76;100495.38;1729280;82;21160;-76
2022/06/21 10:12:32;;;;;;;1.72;0.60;;;;;;;18.29;72.99;100496.91;1715251;82;257388;-75
2022/06/21 10:15:22;;;;;;;0.70;0.70;;;;;;;18.28;73.21;100495.22;1723167;82;21117;-75
2022/06/21 10:18:03;;;;;;;1.20;0.68;;;;;;;18.32;72.59;100505.47;1725127;82;21061;-76
2022/06/21 10:20:57;;;;;;;1.00;0.90;;;;;;;18.23;67.81;100496.76;1710571;82;21029;-76
2022/06/21 10:24:02;;;;;;;1.42;0.60;;;;;;;18.24;72.41;100499.77;1730787;82;21060;-76
2022/06/21 10:27:10;;;;;;;1.37;0.60;;;;;;;18.34;72.13;100502.77;1723891;82;21108;-76
2022/06/21 10:29:44;;;;;;;1.10;0.55;;;;;;;18.39;72.27;100505.55;1727187;82;21750;-76
2022/06/21 10:32:46;;;;;;;2.08;0.50;;;;;;;18.46;72.49;100501.70;1729532;82;21291;-76
2022/06/21 10:35:47;;;;;;;1.00;0.80;;;;;;;18.48;71.83;100518.18;1736601;82;21368;-76
2022/06/21 10:38:37;;;;;;;3.60;0.98;;;;;;;18.36;71.26;100517.48;1744501;82;20910;-76
2022/06/21 10:41:17;;;;;;;1.62;0.72;;;;;;;18.30;70.99;100514.32;1739989;82;21030;-76
2022/06/21 10:44:09;;;;;;;3.20;1.55;;;;;;;18.30;71.84;100507.31;1745777;82;20942;-76
2022/06/21 10:46:49;;;;;;;0.68;0.68;;;;;;;18.37;71.29;100498.69;1745085;81;21025;-76
2022/06/21 10:49:40;;;;;;;1.90;0.60;;;;;;;18.42;71.40;100502.78;1738043;82;21081;-76
2022/06/21 10:52:39;;;;;;;1.85;0.70;;;;;;;18.45;71.27;100501.31;1727800;82;21058;-76
2022/06/21 10:55:33;;;;;;;1.20;0.70;;;;;;;18.45;70.80;100491.30;1735927;82;21096;-76
2022/06/21 10:58:22;;;;;;;1.30;0.78;;;;;;;18.46;70.89;100495.62;1734853;82;21089;-76
2022/06/21 11:01:18;;;;;;;2.15;0.82;;;;;;;18.52;70.20;100496.16;1750826;81;21510;-76
2022/06/21 11:04:15;;;;;;;1.32;0.90;;;;;;;18.56;68.77;100502.55;1713113;79;21041;-76
2022/06/21 11:07:14;;;;;;;1.22;0.90;;;;;;;18.50;69.67;100505.02;1762720;79;20935;-76
2022/06/21 11:10:17;;;;;;;1.60;1.00;;;;;;;18.55;70.39;100495.16;1754632;81;20898;-76
2022/06/21 11:12:54;;;;;;;10.70;2.00;;;;;;;18.72;70.23;100512.63;1751540;80;20910;-76
2022/06/21 11:16:00;;;;;;;2.92;2.33;;;;;;;18.72;68.06;100507.39;1747707;81;21366;-76
2022/06/21 11:19:03;;;;;;;3.80;2.00;;;;;;;18.59;68.02;100514.17;1750282;80;20887;-76
2022/06/21 11:21:51;;;;;;;5.33;2.47;;;;;;;18.53;69.82;100516.18;1763287;80;20882;-76
2022/06/21 11:24:46;;;;;;;7.45;2.20;;;;;;;18.62;69.73;100524.53;1754201;80;21016;-76
2022/06/21 11:27:50;;;;;;;3.50;2.25;;;;;;;18.63;69.99;100527.07;1756429;81;21080;-76
2022/06/21 11:30:24;;;;;;;3.27;2.22;;;;;;;18.59;69.38;100518.11;1757587;81;21398;-76
2022/06/21 11:33:18;;;;;;;3.33;2.60;;;;;;;18.55;69.61;100534.44;1706192;81;21336;-77
2022/06/21 11:36:17;;;;;;;4.08;2.15;;;;;;;18.55;69.60;100533.13;1755350;81;21021;-77
2022/06/21 11:38:54;;;;;;;3.50;1.95;;;;;;;18.63;69.98;100541.94;1750760;81;22206;-77
2022/06/21 11:42:06;;;;;;;2.35;1.75;;;;;;;18.71;69.81;100540.62;1752887;81;21453;-77
2022/06/21 11:45:07;;;;;;;3.20;1.77;;;;;;;18.75;69.91;100534.73;1750244;81;21033;-79
2022/06/21 11:48:21;;;;;;;2.20;1.50;;;;;;;18.84;70.10;100543.44;1754379;81;21064;-78
2022/06/21 11:51:00;;;;;;;3.22;1.60;;;;;;;18.88;69.27;100536.27;1746964;81;21116;-78
2022/06/21 11:54:01;;;;;;;5.75;1.10;;;;;;;18.72;68.96;100541.45;1745716;81;21101;-78
2022/06/21 11:57:10;;;;;;;2.67;1.20;;;;;;;18.57;68.71;100542.22;1751392;81;20973;-78
2022/06/21 12:00:10;;;;;;;1.85;1.17;;;;;;;18.39;68.96;100553.98;1753009;81;20984;-77
2022/06/21 12:03:00;;;;;;;3.90;1.15;;;;;;;18.44;69.41;100553.30;1757007;81;21044;-77
2022/06/21 12:05:53;;;;;;;1.92;1.20;;;;;;;18.44;68.81;100547.21;1763809;80;21089;-77
2022/06/21 12:08:28;;;;;;;2.15;1.27;;;;;;;18.48;69.35;100546.98;1761071;80;21035;-77
2022/06/21 12:11:15;;;;;;;4.62;1.30;;;;;;;18.60;69.50;100539.44;1767389;80;21010;-77
2022/06/21 12:14:06;;;;;;;1.40;1.22;;;;;;;18.67;69.03;100547.41;1739432;80;20973;-78
2022/06/21 12:16:55;;;;;;;2.67;1.10;;;;;;;18.72;69.03;100552.77;1765267;80;21463;-77
2022/06/21 12:19:31;;;;;;;2.58;1.22;;;;;;;18.74;68.90;100544.38;1772719;80;21089;-78
2022/06/21 12:22:18;;;;;;;3.37;1.30;;;;;;;18.73;69.09;100541.37;1767009;80;21081;-78
2022/06/21 12:24:44;;;;;;;5.72;1.20;;;;;;;18.83;69.21;100543.05;1770474;79;20947;-78
2022/06/21 12:27:13;;;;;;;1.55;1.00;;;;;;;19.02;69.23;100545.58;1755593;80;21056;-78
2022/06/21 12:29:39;;;;;;;4.00;1.20;;;;;;;19.12;68.80;100538.47;1753022;80;21125;-78
2022/06/21 12:32:16;;;;;;;2.13;1.20;;;;;;;19.19;68.61;100541.62;1759997;80;21049;-78
2022/06/21 12:35:01;;;;;;;2.85;1.17;;;;;;;19.19;67.87;100544.23;1761204;80;22234;-78
2022/06/21 12:37:39;;;;;;;3.08;1.17;;;;;;;19.25;67.81;100543.88;1767545;80;20974;-78
2022/06/21 12:40:31;;;;;;;3.10;0.90;;;;;;;19.45;67.69;100542.36;1770359;80;20915;-78
2022/06/21 12:43:48;;;;;;;1.30;1.10;;;;;;;19.58;68.26;100541.73;1761858;80;21427;-78